Concerto — JJ3855 — position and weather

sailwx.info

Track history (hours):
 
Tides and Currents Weather Stations Pressure Air Temp Water Temp Dewpoint Dewpoint Depression Visibility Wind Speed Wind Dir Waves Ship Positions

Concerto

Last reported at 2014-Aug-23 03:33 UTC. Time now 2014-Aug-23 15:27 UTC.
Position N 34°38' E 135°09'.

Length 62 m; draft 3 m.

Type: Passenger vessel. MMSI: 431000448.

Date/timePositionNaut miles runAvg speedWind from/ knotsBaromVisibWave heightAir tempDewpointWater temp
2014-Aug-23 03:33N 34°38' E 135°09'1 0.1
2014-Aug-22 11:33N 34°38' E 135°11'2 1.7
2014-Aug-22 10:33N 34°40' E 135°11'1 1.0
2014-Aug-22 09:33N 34°39' E 135°11'0 0.2
2014-Aug-22 08:33N 34°39' E 135°11'2 1.9
2014-Aug-22 07:29N 34°41' E 135°11'3 3.5
2014-Aug-22 06:33N 34°38' E 135°09'3 3.2
2014-Aug-22 05:32N 34°41' E 135°11'1 0.6
2014-Aug-22 04:33N 34°40' E 135°11'3 2.5
2014-Aug-22 03:33N 34°38' E 135°10'3 2.8
2014-Aug-22 02:33N 34°41' E 135°11'3 0.2
2014-Aug-21 11:33N 34°38' E 135°11'2 2.0
2014-Aug-21 10:33N 34°40' E 135°11'1 0.8
2014-Aug-21 09:33N 34°39' E 135°11'0 0.1
2014-Aug-21 08:33N 34°39' E 135°11'2 1.9
2014-Aug-21 07:33N 34°41' E 135°11'3 3.2
2014-Aug-21 06:33N 34°38' E 135°10'3 3.0
2014-Aug-21 05:29N 34°41' E 135°11'0 0.3
2014-Aug-21 04:33N 34°41' E 135°11'3 3.1
2014-Aug-21 03:33N 34°38' E 135°09'3 3.3
2014-Aug-21 02:33N 34°41' E 135°11'3 0.2
2014-Aug-20 11:33N 34°38' E 135°11'3 2.6
2014-Aug-20 10:33N 34°40' E 135°11'0 0.4
2014-Aug-20 09:33N 34°40' E 135°12'1 1.2
2014-Aug-20 08:33N 34°39' E 135°11'2 1.8
2014-Aug-20 07:24N 34°41' E 135°11'4 4.2
2014-Aug-20 06:33N 34°38' E 135°09'4 3.6
2014-Aug-20 05:33N 34°41' E 135°11'0 0.3
2014-Aug-20 04:33N 34°41' E 135°11'3 3.0
2014-Aug-20 03:32N 34°38' E 135°10'3 3.3
2014-Aug-20 02:33N 34°41' E 135°11'3 0.2
2014-Aug-19 11:33N 34°38' E 135°11'2 1.7
2014-Aug-19 10:33N 34°40' E 135°11'0 0.1
2014-Aug-19 09:33N 34°40' E 135°11'1 1.3
2014-Aug-19 08:33N 34°39' E 135°11'2 2.2
2014-Aug-19 07:32N 34°41' E 135°11'3 2.7
2014-Aug-19 06:33N 34°38' E 135°10'3 2.4
2014-Aug-19 05:28N 34°41' E 135°11'0 0.5
2014-Aug-19 04:33N 34°40' E 135°11'3 3.2
2014-Aug-19 03:33N 34°38' E 135°10'3 3.4
2014-Aug-19 02:33N 34°41' E 135°11'2 0.2
2014-Aug-18 11:33N 34°38' E 135°11'2 1.7
2014-Aug-18 10:33N 34°40' E 135°11'0 0.4
2014-Aug-18 09:33N 34°40' E 135°11'1 1.0
2014-Aug-18 08:33N 34°39' E 135°11'2 2.0
2014-Aug-18 07:29N 34°41' E 135°11'3 3.7
2014-Aug-18 06:33N 34°37' E 135°10'3 3.2
2014-Aug-18 05:29N 34°41' E 135°11'1 0.7
2014-Aug-18 04:33N 34°40' E 135°12'3 3.0
2014-Aug-18 03:33N 34°38' E 135°09'3 3.2
2014-Aug-18 02:33N 34°41' E 135°11'3 0.2
2014-Aug-17 11:33N 34°38' E 135°11'2 1.7
2014-Aug-17 10:33N 34°40' E 135°11'0 0.5
2014-Aug-17 09:33N 34°39' E 135°11'1 0.9
2014-Aug-17 08:33N 34°39' E 135°11'2 2.1
2014-Aug-17 07:29N 34°41' E 135°11'3 3.1
2014-Aug-17 06:33N 34°38' E 135°10'3 2.6
2014-Aug-17 05:27N 34°41' E 135°11'0 0.3
2014-Aug-17 04:33N 34°41' E 135°11'3 3.0
2014-Aug-17 03:33N 34°38' E 135°10'1 0.1
2014-Aug-16 11:33N 34°38' E 135°11'2 2.0
2014-Aug-16 10:33N 34°40' E 135°11'1 1.3
2014-Aug-16 09:34N 34°39' E 135°11'0 0.3
2014-Aug-16 08:33N 34°39' E 135°11'2 2.0
2014-Aug-16 07:33N 34°41' E 135°11'2 2.4
2014-Aug-16 06:33N 34°38' E 135°11'2 2.3
2014-Aug-16 05:31N 34°41' E 135°11'1 0.7
2014-Aug-16 04:33N 34°40' E 135°12'0 0.4
2014-Aug-16 03:33N 34°40' E 135°12'1 0.9
2014-Aug-16 02:33N 34°41' E 135°11'3 0.2
2014-Aug-15 11:33N 34°38' E 135°10'2 2.1
2014-Aug-15 10:33N 34°40' E 135°11'1 0.6
2014-Aug-15 09:33N 34°39' E 135°11'0 0.4
2014-Aug-15 08:33N 34°39' E 135°11'2 1.8
2014-Aug-15 07:29N 34°41' E 135°11'3 2.8
2014-Aug-15 06:33N 34°38' E 135°11'3 2.5
2014-Aug-15 05:29N 34°41' E 135°11'1 0.7
2014-Aug-15 04:33N 34°40' E 135°12'2 1.9
2014-Aug-15 03:33N 34°39' E 135°11'2 2.3
2014-Aug-15 02:33N 34°41' E 135°11'3 0.2
2014-Aug-14 11:33N 34°38' E 135°09'3 3.0
2014-Aug-14 10:33N 34°40' E 135°12'1 1.4
2014-Aug-14 09:33N 34°39' E 135°11'1 0.6
2014-Aug-14 08:33N 34°39' E 135°11'2 2.1
2014-Aug-14 07:29N 34°41' E 135°11'3 3.2
2014-Aug-14 06:33N 34°38' E 135°10'3 3.0
2014-Aug-14 05:33N 34°41' E 135°11'0 0.3
2014-Aug-14 04:33N 34°41' E 135°11'3 3.1
2014-Aug-14 03:34N 34°38' E 135°09'3 3.2
2014-Aug-14 02:34N 34°41' E 135°11'3 0.2
2014-Aug-13 11:33N 34°38' E 135°11'2 2.2
2014-Aug-13 10:33N 34°40' E 135°11'1 0.7
2014-Aug-13 09:33N 34°39' E 135°11'1 0.8
2014-Aug-13 08:33N 34°39' E 135°11'2 1.9
2014-Aug-13 07:25N 34°41' E 135°11'3 3.7
2014-Aug-13 06:33N 34°38' E 135°09'3 3.2
2014-Aug-13 05:33N 34°41' E 135°11'0 0.3
2014-Aug-13 04:33N 34°41' E 135°11'  
Track history (hours):
 
Tides and Currents Weather Stations Pressure Air Temp Water Temp Dewpoint Dewpoint Depression Visibility Wind Speed Wind Dir Waves Ship Positions

Concerto

Last reported at 2014-Aug-23 03:33 UTC. Time now 2014-Aug-23 15:27 UTC.
Position N 34°38' E 135°09'.

Length 62 m; draft 3 m.

Type: Passenger vessel. MMSI: 431000448.

Date/timePositionNaut miles runAvg speedWind from/ knotsBaromVisibWave heightAir tempDewpointWater temp
2014-Aug-23 03:33N 34°38' E 135°09'1 0.1
2014-Aug-22 11:33N 34°38' E 135°11'2 1.7
2014-Aug-22 10:33N 34°40' E 135°11'1 1.0
2014-Aug-22 09:33N 34°39' E 135°11'0 0.2
2014-Aug-22 08:33N 34°39' E 135°11'2 1.9
2014-Aug-22 07:29N 34°41' E 135°11'3 3.5
2014-Aug-22 06:33N 34°38' E 135°09'3 3.2
2014-Aug-22 05:32N 34°41' E 135°11'1 0.6
2014-Aug-22 04:33N 34°40' E 135°11'3 2.5
2014-Aug-22 03:33N 34°38' E 135°10'3 2.8
2014-Aug-22 02:33N 34°41' E 135°11'3 0.2
2014-Aug-21 11:33N 34°38' E 135°11'2 2.0
2014-Aug-21 10:33N 34°40' E 135°11'1 0.8
2014-Aug-21 09:33N 34°39' E 135°11'0 0.1
2014-Aug-21 08:33N 34°39' E 135°11'2 1.9
2014-Aug-21 07:33N 34°41' E 135°11'3 3.2
2014-Aug-21 06:33N 34°38' E 135°10'3 3.0
2014-Aug-21 05:29N 34°41' E 135°11'0 0.3
2014-Aug-21 04:33N 34°41' E 135°11'3 3.1
2014-Aug-21 03:33N 34°38' E 135°09'3 3.3
2014-Aug-21 02:33N 34°41' E 135°11'3 0.2
2014-Aug-20 11:33N 34°38' E 135°11'3 2.6
2014-Aug-20 10:33N 34°40' E 135°11'0 0.4
2014-Aug-20 09:33N 34°40' E 135°12'1 1.2
2014-Aug-20 08:33N 34°39' E 135°11'2 1.8
2014-Aug-20 07:24N 34°41' E 135°11'4 4.2
2014-Aug-20 06:33N 34°38' E 135°09'4 3.6
2014-Aug-20 05:33N 34°41' E 135°11'0 0.3
2014-Aug-20 04:33N 34°41' E 135°11'3 3.0
2014-Aug-20 03:32N 34°38' E 135°10'3 3.3
2014-Aug-20 02:33N 34°41' E 135°11'3 0.2
2014-Aug-19 11:33N 34°38' E 135°11'2 1.7
2014-Aug-19 10:33N 34°40' E 135°11'0 0.1
2014-Aug-19 09:33N 34°40' E 135°11'1 1.3
2014-Aug-19 08:33N 34°39' E 135°11'2 2.2
2014-Aug-19 07:32N 34°41' E 135°11'3 2.7
2014-Aug-19 06:33N 34°38' E 135°10'3 2.4
2014-Aug-19 05:28N 34°41' E 135°11'0 0.5
2014-Aug-19 04:33N 34°40' E 135°11'3 3.2
2014-Aug-19 03:33N 34°38' E 135°10'3 3.4
2014-Aug-19 02:33N 34°41' E 135°11'2 0.2
2014-Aug-18 11:33N 34°38' E 135°11'2 1.7
2014-Aug-18 10:33N 34°40' E 135°11'0 0.4
2014-Aug-18 09:33N 34°40' E 135°11'1 1.0
2014-Aug-18 08:33N 34°39' E 135°11'2 2.0
2014-Aug-18 07:29N 34°41' E 135°11'3 3.7
2014-Aug-18 06:33N 34°37' E 135°10'3 3.2
2014-Aug-18 05:29N 34°41' E 135°11'1 0.7
2014-Aug-18 04:33N 34°40' E 135°12'3 3.0
2014-Aug-18 03:33N 34°38' E 135°09'3 3.2
2014-Aug-18 02:33N 34°41' E 135°11'3 0.2
2014-Aug-17 11:33N 34°38' E 135°11'2 1.7
2014-Aug-17 10:33N 34°40' E 135°11'0 0.5
2014-Aug-17 09:33N 34°39' E 135°11'1 0.9
2014-Aug-17 08:33N 34°39' E 135°11'2 2.1
2014-Aug-17 07:29N 34°41' E 135°11'3 3.1
2014-Aug-17 06:33N 34°38' E 135°10'3 2.6
2014-Aug-17 05:27N 34°41' E 135°11'0 0.3
2014-Aug-17 04:33N 34°41' E 135°11'3 3.0
2014-Aug-17 03:33N 34°38' E 135°10'1 0.1
2014-Aug-16 11:33N 34°38' E 135°11'2 2.0
2014-Aug-16 10:33N 34°40' E 135°11'1 1.3
2014-Aug-16 09:34N 34°39' E 135°11'0 0.3
2014-Aug-16 08:33N 34°39' E 135°11'2 2.0
2014-Aug-16 07:33N 34°41' E 135°11'2 2.4
2014-Aug-16 06:33N 34°38' E 135°11'2 2.3
2014-Aug-16 05:31N 34°41' E 135°11'1 0.7
2014-Aug-16 04:33N 34°40' E 135°12'0 0.4
2014-Aug-16 03:33N 34°40' E 135°12'1 0.9
2014-Aug-16 02:33N 34°41' E 135°11'3 0.2
2014-Aug-15 11:33N 34°38' E 135°10'2 2.1
2014-Aug-15 10:33N 34°40' E 135°11'1 0.6
2014-Aug-15 09:33N 34°39' E 135°11'0 0.4
2014-Aug-15 08:33N 34°39' E 135°11'2 1.8
2014-Aug-15 07:29N 34°41' E 135°11'3 2.8
2014-Aug-15 06:33N 34°38' E 135°11'3 2.5
2014-Aug-15 05:29N 34°41' E 135°11'1 0.7
2014-Aug-15 04:33N 34°40' E 135°12'2 1.9
2014-Aug-15 03:33N 34°39' E 135°11'2 2.3
2014-Aug-15 02:33N 34°41' E 135°11'3 0.2
2014-Aug-14 11:33N 34°38' E 135°09'3 3.0
2014-Aug-14 10:33N 34°40' E 135°12'1 1.4
2014-Aug-14 09:33N 34°39' E 135°11'1 0.6
2014-Aug-14 08:33N 34°39' E 135°11'2 2.1
2014-Aug-14 07:29N 34°41' E 135°11'3 3.2
2014-Aug-14 06:33N 34°38' E 135°10'3 3.0
2014-Aug-14 05:33N 34°41' E 135°11'0 0.3
2014-Aug-14 04:33N 34°41' E 135°11'3 3.1
2014-Aug-14 03:34N 34°38' E 135°09'3 3.2
2014-Aug-14 02:34N 34°41' E 135°11'3 0.2
2014-Aug-13 11:33N 34°38' E 135°11'2 2.2
2014-Aug-13 10:33N 34°40' E 135°11'1 0.7
2014-Aug-13 09:33N 34°39' E 135°11'1 0.8
2014-Aug-13 08:33N 34°39' E 135°11'2 1.9
2014-Aug-13 07:25N 34°41' E 135°11'3 3.7
2014-Aug-13 06:33N 34°38' E 135°09'3 3.2
2014-Aug-13 05:33N 34°41' E 135°11'0 0.3
2014-Aug-13 04:33N 34°41' E 135°11'  

Dump ship's entire track history